Time;durP1;ratioP1;P1;durP2;ratioP2;P2;SDS_P1;SDS_P2;PMS_P1;PMS_P2;Temp;Humidity;BMP_temperature;BMP_pressure;BME280_temperature;BME280_humidity;BME280_pressure;Samples;Min_cycle;Max_cycle;Signal;HPM_P1;HPM_P2
2022/01/10 00:01:46;;;;;;;12.20;5.78;;;;;;;8.26;53.03;100678.31;5091665;28;20097;-74
2022/01/10 00:04:13;;;;;;;10.80;5.38;;;;;;;8.23;53.07;100684.78;5079722;28;20036;-74
2022/01/10 00:06:39;;;;;;;8.25;5.53;;;;;;;8.22;53.09;100685.75;5059203;28;20045;-74
2022/01/10 00:09:06;;;;;;;10.05;5.68;;;;;;;8.20;52.95;100693.06;5093629;28;20052;-74
2022/01/10 00:11:33;;;;;;;11.75;5.97;;;;;;;8.17;52.81;100700.47;5090199;28;20127;-74
2022/01/10 00:13:59;;;;;;;9.93;5.55;;;;;;;8.15;52.88;100699.72;5091671;28;20059;-74
2022/01/10 00:16:26;;;;;;;10.13;5.60;;;;;;;8.13;52.58;100701.66;5088341;28;20080;-74
2022/01/10 00:18:53;;;;;;;9.23;5.35;;;;;;;8.10;52.83;100705.38;5093307;28;20067;-74
2022/01/10 00:21:19;;;;;;;10.60;5.90;;;;;;;8.08;52.87;100698.31;5091457;28;20056;-74
2022/01/10 00:23:46;;;;;;;10.60;5.57;;;;;;;8.06;52.97;100703.84;5082728;28;20080;-74
2022/01/10 00:26:13;;;;;;;11.20;5.63;;;;;;;8.05;52.96;100703.94;5086302;28;20062;-74
2022/01/10 00:28:39;;;;;;;11.35;5.90;;;;;;;8.02;53.00;100708.53;5083066;28;20075;-74
2022/01/10 00:31:06;;;;;;;11.80;5.93;;;;;;;8.01;52.98;100700.53;5080999;28;20091;-73
2022/01/10 00:33:33;;;;;;;9.63;5.63;;;;;;;7.99;53.03;100711.41;5089171;28;20048;-74
2022/01/10 00:35:59;;;;;;;11.48;6.13;;;;;;;7.99;53.08;100710.53;5091060;28;20526;-74
2022/01/10 00:38:26;;;;;;;10.02;5.68;;;;;;;7.97;53.18;100721.47;5083537;28;20044;-73
2022/01/10 00:40:53;;;;;;;10.80;6.05;;;;;;;7.96;53.07;100722.44;5090210;28;20540;-74
2022/01/10 00:43:30;;;;;;;11.43;5.72;;;;;;;7.97;53.25;100723.31;5091190;28;20079;-74
2022/01/10 00:45:58;;;;;;;9.48;5.88;;;;;;;7.95;53.01;100731.50;5090108;28;20144;-74
2022/01/10 00:48:27;;;;;;;11.45;5.90;;;;;;;7.94;52.86;100728.88;5087526;28;20067;-74
2022/01/10 00:50:54;;;;;;;9.88;5.57;;;;;;;7.92;53.11;100737.06;5085705;28;20076;-74
2022/01/10 00:53:21;;;;;;;8.90;5.68;;;;;;;7.91;52.78;100737.16;5091363;28;20143;-74
2022/01/10 00:55:47;;;;;;;10.32;6.20;;;;;;;7.90;53.12;100740.84;5090580;28;20058;-74
2022/01/10 00:58:14;;;;;;;10.25;6.20;;;;;;;7.89;53.01;100753.50;5091891;28;20071;-74
2022/01/10 01:00:40;;;;;;;10.77;6.22;;;;;;;7.88;53.06;100754.44;5072106;28;20532;-74
2022/01/10 01:03:08;;;;;;;12.10;6.20;;;;;;;7.89;52.90;100749.91;5087880;28;20044;-74
2022/01/10 01:05:39;;;;;;;12.25;6.40;;;;;;;7.87;52.98;100751.81;5091257;28;20044;-73
2022/01/10 01:08:08;;;;;;;10.20;5.68;;;;;;;7.87;53.26;100754.53;5088902;28;20048;-74
2022/01/10 01:15:55;;;;;;;11.70;5.88;;;;;;;7.83;53.01;100761.91;5084577;28;20143;-74
2022/01/10 01:26:43;;;;;;;9.90;5.40;;;;;;;7.78;52.94;100798.28;5072863;28;20101;-74
2022/01/10 01:29:12;;;;;;;9.52;5.28;;;;;;;7.75;52.96;100804.72;5086087;28;20460;-74
2022/01/10 01:31:42;;;;;;;8.32;5.43;;;;;;;7.75;53.10;100814.66;5069426;28;20058;-74
2022/01/10 01:34:10;;;;;;;10.50;5.80;;;;;;;7.73;53.04;100817.47;5091271;28;20043;-74
2022/01/10 01:36:37;;;;;;;8.48;4.85;;;;;;;7.71;53.04;100823.91;5083474;28;20052;-74
2022/01/10 01:39:16;;;;;;;7.38;5.20;;;;;;;7.71;52.82;100827.50;5089030;28;20458;-74
2022/01/10 01:41:43;;;;;;;9.40;5.93;;;;;;;7.68;53.15;100830.34;5090170;28;20071;-74
2022/01/10 01:44:10;;;;;;;9.68;5.88;;;;;;;7.69;52.72;100831.22;5090593;28;20074;-74
2022/01/10 01:46:38;;;;;;;10.95;5.60;;;;;;;7.68;52.96;100837.59;5086878;28;20087;-74
2022/01/10 01:49:07;;;;;;;11.23;5.70;;;;;;;7.69;52.99;100839.31;5082155;28;20050;-74
2022/01/10 01:51:34;;;;;;;9.23;5.45;;;;;;;7.66;52.96;100837.66;5089749;28;20205;-74
2022/01/10 01:54:01;;;;;;;9.93;5.40;;;;;;;7.64;52.93;100851.28;5082103;28;20072;-73
2022/01/10 01:56:27;;;;;;;11.25;5.47;;;;;;;7.63;52.83;100848.66;5086684;28;20102;-74
2022/01/10 01:58:55;;;;;;;10.73;5.78;;;;;;;7.62;52.91;100855.88;5091081;28;20109;-74
2022/01/10 02:01:23;;;;;;;9.13;5.30;;;;;;;7.62;52.81;100860.41;5088944;28;20059;-74
2022/01/10 02:03:51;;;;;;;9.25;5.63;;;;;;;7.61;52.89;100853.25;5089428;28;20074;-74
2022/01/10 02:06:18;;;;;;;10.95;6.25;;;;;;;7.59;52.67;100865.97;5089605;28;20072;-74
2022/01/10 02:08:45;;;;;;;11.25;5.78;;;;;;;7.58;52.90;100867.81;5089606;28;20679;-74
2022/01/10 02:11:14;;;;;;;9.98;6.07;;;;;;;7.60;53.06;100870.44;5081665;28;20072;-74
2022/01/10 02:13:41;;;;;;;10.73;5.63;;;;;;;7.58;52.88;100875.03;5087693;28;20479;-74
2022/01/10 02:16:10;;;;;;;11.80;6.00;;;;;;;7.55;53.02;100884.19;5084780;28;20051;-74
2022/01/10 02:18:38;;;;;;;10.07;5.63;;;;;;;7.54;52.95;100882.44;5081739;28;20531;-74
2022/01/10 02:21:05;;;;;;;11.05;5.90;;;;;;;7.52;52.79;100881.66;5069873;28;20044;-74
2022/01/10 02:23:33;;;;;;;10.93;6.10;;;;;;;7.51;52.87;100890.72;5087703;28;20093;-74
2022/01/10 02:26:00;;;;;;;9.98;5.80;;;;;;;7.50;52.72;100896.19;5080670;28;20165;-74
2022/01/10 02:28:32;;;;;;;10.55;5.90;;;;;;;7.47;52.86;100899.06;5078932;28;20052;-74
2022/01/10 02:30:59;;;;;;;11.30;6.00;;;;;;;7.46;52.82;100902.72;5087902;28;20074;-74
2022/01/10 02:33:29;;;;;;;8.48;5.80;;;;;;;7.46;52.76;100909.00;5090862;28;20052;-74
2022/01/10 02:36:10;;;;;;;9.70;5.53;;;;;;;7.45;53.15;100911.78;5082067;28;20056;-74
2022/01/10 02:38:44;;;;;;;11.32;5.93;;;;;;;7.43;53.15;100908.28;5070495;28;20503;-74
2022/01/10 02:41:11;;;;;;;10.02;5.40;;;;;;;7.42;52.89;100917.34;5084796;28;20071;-74
2022/01/10 02:43:41;;;;;;;11.05;5.95;;;;;;;7.42;53.33;100914.63;5090692;28;20127;-74
2022/01/10 02:46:07;;;;;;;8.55;5.93;;;;;;;7.41;53.04;100919.16;5079708;28;20094;-74
2022/01/10 02:48:34;;;;;;;11.75;5.97;;;;;;;7.42;53.16;100928.13;5086289;28;20076;-73
2022/01/10 02:51:01;;;;;;;8.63;5.57;;;;;;;7.42;53.10;100925.44;5086656;28;20108;-73
2022/01/10 02:53:28;;;;;;;10.75;6.25;;;;;;;7.40;53.12;100928.25;5089151;28;20075;-74
2022/01/10 02:55:54;;;;;;;11.13;5.93;;;;;;;7.40;53.11;100933.66;5088224;28;20084;-74
2022/01/10 02:58:21;;;;;;;11.02;6.25;;;;;;;7.40;53.12;100932.78;5088425;28;20052;-73
2022/01/10 03:00:47;;;;;;;11.88;6.50;;;;;;;7.39;53.05;100941.81;5084884;28;20056;-74
2022/01/10 03:03:14;;;;;;;10.98;6.15;;;;;;;7.38;53.38;100940.94;5090392;28;20040;-74
2022/01/10 03:05:41;;;;;;;8.20;5.72;;;;;;;7.38;53.50;100937.38;5078260;28;20052;-74
2022/01/10 03:08:07;;;;;;;11.05;6.03;;;;;;;7.38;53.48;100953.56;5089990;28;20078;-74
2022/01/10 03:10:34;;;;;;;10.40;5.93;;;;;;;7.38;53.45;100957.16;5088443;28;20060;-74
2022/01/10 03:13:01;;;;;;;11.77;5.90;;;;;;;7.39;53.71;100971.53;5089498;28;20101;-74
2022/01/10 03:15:29;;;;;;;8.77;5.78;;;;;;;7.38;53.44;100976.06;5080925;28;20139;-74
2022/01/10 03:17:56;;;;;;;10.75;6.20;;;;;;;7.37;53.70;100970.72;5089975;28;20044;-74
2022/01/10 03:20:23;;;;;;;9.95;6.05;;;;;;;7.37;53.45;100976.13;5083180;28;20395;-73
2022/01/10 03:22:51;;;;;;;10.85;6.00;;;;;;;7.36;53.46;100980.66;5089832;28;20131;-74
2022/01/10 03:25:19;;;;;;;8.25;5.43;;;;;;;7.34;53.23;100987.97;5069633;28;20078;-74
2022/01/10 03:27:46;;;;;;;10.32;5.93;;;;;;;7.33;53.25;100996.16;5093240;28;20056;-74
2022/01/10 03:30:15;;;;;;;9.95;5.88;;;;;;;7.32;53.19;101005.22;5081810;28;20487;-74
2022/01/10 03:32:43;;;;;;;8.95;5.50;;;;;;;7.30;53.28;101002.59;5087820;28;20750;-74
2022/01/10 03:35:10;;;;;;;13.07;6.10;;;;;;;7.28;53.54;101007.19;5068303;28;20064;-74
2022/01/10 03:37:37;;;;;;;11.05;5.60;;;;;;;7.27;53.92;101008.13;5090421;28;20117;-74
2022/01/10 03:40:05;;;;;;;10.25;5.88;;;;;;;7.29;53.77;101011.63;5089419;28;20097;-73
2022/01/10 03:42:32;;;;;;;10.52;5.93;;;;;;;7.27;53.63;101008.13;5092923;28;20056;-74
2022/01/10 03:44:58;;;;;;;10.55;5.78;;;;;;;7.25;53.68;101005.50;5090462;28;20052;-74
2022/01/10 03:47:25;;;;;;;12.10;6.07;;;;;;;7.26;53.74;101011.78;5093142;28;20088;-74
2022/01/10 03:49:52;;;;;;;10.77;6.20;;;;;;;7.24;53.66;101017.28;5086968;28;20075;-74
2022/01/10 03:52:19;;;;;;;9.93;5.45;;;;;;;7.22;53.35;101012.91;5093158;28;20044;-74
2022/01/10 03:54:46;;;;;;;10.40;6.32;;;;;;;7.22;53.53;101012.91;5091322;28;20105;-74
2022/01/10 03:57:12;;;;;;;12.18;6.28;;;;;;;7.19;53.76;101015.75;5074335;28;20062;-74
2022/01/10 03:59:40;;;;;;;11.10;5.95;;;;;;;7.18;53.72;101022.97;5073771;28;20044;-74
2022/01/10 04:02:06;;;;;;;11.40;5.82;;;;;;;7.16;53.99;101030.28;5088076;28;20056;-74
2022/01/10 04:04:35;;;;;;;10.20;6.05;;;;;;;7.16;54.03;101030.28;5091761;28;20056;-74
2022/01/10 04:07:03;;;;;;;12.30;6.40;;;;;;;7.18;53.80;101035.59;5090856;28;20078;-74
2022/01/10 04:09:30;;;;;;;12.02;6.15;;;;;;;7.16;54.05;101035.69;5091835;28;20515;-74
2022/01/10 04:11:57;;;;;;;11.10;5.43;;;;;;;7.16;53.81;101041.09;5090194;28;20052;-73
2022/01/10 04:14:24;;;;;;;11.00;6.32;;;;;;;7.17;54.05;101044.63;5092393;28;20048;-74
2022/01/10 04:16:50;;;;;;;11.98;5.85;;;;;;;7.17;53.88;101056.31;5090795;28;20514;-74
2022/01/10 04:19:17;;;;;;;9.45;5.68;;;;;;;7.16;54.20;101060.00;5089832;28;20052;-74
2022/01/10 04:21:43;;;;;;;10.05;6.20;;;;;;;7.16;54.02;101068.09;5093201;28;20123;-74
2022/01/10 04:24:11;;;;;;;10.43;5.63;;;;;;;7.17;53.88;101068.94;5073550;28;20060;-74
2022/01/10 04:26:37;;;;;;;9.38;5.70;;;;;;;7.17;53.85;101075.22;5090772;28;20795;-74
2022/01/10 04:29:04;;;;;;;11.38;6.20;;;;;;;7.17;53.80;101077.03;5093136;28;20056;-74
2022/01/10 04:31:32;;;;;;;10.82;6.72;;;;;;;7.17;53.68;101086.03;5088277;28;20054;-74
2022/01/10 04:33:58;;;;;;;10.48;6.20;;;;;;;7.16;53.70;101095.09;5073261;28;20174;-74
2022/01/10 04:36:25;;;;;;;11.45;6.78;;;;;;;7.16;53.82;101096.91;5089868;28;20056;-74
2022/01/10 04:38:51;;;;;;;12.95;7.25;;;;;;;7.14;53.51;101113.19;5091589;28;20802;-74
2022/01/10 04:41:19;;;;;;;10.68;6.63;;;;;;;7.14;53.61;101106.91;5090949;28;20068;-74
2022/01/10 04:43:46;;;;;;;12.70;6.30;;;;;;;7.12;53.81;101123.19;5073846;28;20126;-74
2022/01/10 04:46:12;;;;;;;10.25;6.20;;;;;;;7.11;53.74;101121.44;5087371;28;20056;-74
2022/01/10 04:48:39;;;;;;;9.68;5.97;;;;;;;7.10;53.46;101130.47;5083544;28;20055;-74
2022/01/10 04:53:40;;;;;;;10.77;6.23;;;;;;;7.06;53.57;101147.78;5093260;28;20055;-74
2022/01/10 04:56:07;;;;;;;12.05;6.78;;;;;;;7.05;53.51;101150.53;5096443;28;20044;-74
2022/01/10 04:58:34;;;;;;;11.23;6.57;;;;;;;7.02;53.79;101153.38;5075021;28;20082;-74
2022/01/10 05:01:02;;;;;;;10.95;6.00;;;;;;;7.00;53.61;101163.41;5092655;28;20048;-74
2022/01/10 05:03:30;;;;;;;10.80;6.45;;;;;;;7.00;53.55;101166.09;5092316;28;20509;-74
2022/01/10 05:05:57;;;;;;;10.85;6.13;;;;;;;6.97;53.44;101167.09;5088851;28;20055;-74
2022/01/10 05:08:27;;;;;;;11.20;6.30;;;;;;;6.96;53.42;101178.84;5092683;28;20126;-74
2022/01/10 05:10:54;;;;;;;12.88;6.63;;;;;;;6.93;53.62;101184.38;5068948;28;20064;-74
2022/01/10 05:13:22;;;;;;;11.63;6.55;;;;;;;6.92;53.67;101188.03;5091084;28;20087;-74
2022/01/10 05:15:50;;;;;;;10.57;6.40;;;;;;;6.92;53.77;101190.72;5098485;28;20036;-74
2022/01/10 05:18:22;;;;;;;12.73;6.53;;;;;;;6.93;53.91;101197.00;5085049;28;20488;-73
2022/01/10 05:20:49;;;;;;;11.00;6.13;;;;;;;6.90;53.53;101195.34;5085270;28;20082;-74
2022/01/10 05:23:16;;;;;;;13.27;6.30;;;;;;;6.89;53.84;101198.97;5073126;28;20430;-74
2022/01/10 05:25:43;;;;;;;14.38;6.47;;;;;;;6.89;53.87;101204.38;5088761;28;20052;-74
2022/01/10 05:28:12;;;;;;;11.45;6.38;;;;;;;6.90;53.82;101214.22;5090826;28;20075;-74
2022/01/10 05:30:40;;;;;;;11.30;6.38;;;;;;;6.88;54.00;101221.50;5087821;28;20044;-74
2022/01/10 05:33:08;;;;;;;12.80;6.68;;;;;;;6.89;54.12;101217.88;5077451;28;20080;-74
2022/01/10 05:35:36;;;;;;;12.38;6.63;;;;;;;6.90;53.87;101233.13;5063547;28;20143;-74
2022/01/10 05:38:03;;;;;;;12.52;6.40;;;;;;;6.88;54.08;101240.41;5087992;28;20078;-74
2022/01/10 05:40:30;;;;;;;11.73;6.97;;;;;;;6.88;54.03;101243.97;5090758;28;20134;-74
2022/01/10 05:42:56;;;;;;;12.88;7.00;;;;;;;6.89;53.97;101247.56;5088504;28;20141;-73
2022/01/10 05:45:23;;;;;;;13.68;7.05;;;;;;;6.88;54.03;101248.50;5068662;28;20062;-74
2022/01/10 05:47:50;;;;;;;13.63;7.93;;;;;;;6.87;53.88;101257.53;5076732;28;20118;-74
2022/01/10 05:50:20;;;;;;;13.15;7.13;;;;;;;6.88;54.08;101262.00;5088868;28;20090;-74
2022/01/10 05:52:47;;;;;;;11.93;7.00;;;;;;;6.87;54.19;101273.75;5085671;28;20052;-74
2022/01/10 05:55:14;;;;;;;15.10;7.60;;;;;;;6.86;53.86;101278.25;5086518;28;20047;-74
2022/01/10 05:57:41;;;;;;;12.10;6.95;;;;;;;6.86;53.89;101289.06;5071413;28;20052;-74
2022/01/10 06:00:08;;;;;;;13.45;7.55;;;;;;;6.86;54.13;101285.47;5086288;28;20143;-73
2022/01/10 06:02:34;;;;;;;14.10;7.30;;;;;;;6.86;54.05;101297.16;5072436;28;20175;-73
2022/01/10 06:05:08;;;;;;;11.98;7.38;;;;;;;6.86;54.12;101302.53;5071271;28;20058;-74
2022/01/10 06:07:38;;;;;;;13.55;7.57;;;;;;;6.89;54.07;101315.03;5068875;28;20081;-74
2022/01/10 06:10:06;;;;;;;13.77;6.63;;;;;;;6.86;54.25;101313.34;5087536;28;20483;-74
2022/01/10 06:12:37;;;;;;;13.57;6.85;;;;;;;6.87;54.25;101319.63;5086282;28;20121;-74
2022/01/10 06:15:04;;;;;;;12.23;6.85;;;;;;;6.87;54.22;101323.19;5088311;28;20044;-74
2022/01/10 06:17:31;;;;;;;11.20;6.70;;;;;;;6.87;54.37;101330.41;5071719;28;20054;-74
2022/01/10 06:19:59;;;;;;;11.40;6.60;;;;;;;6.87;54.16;101333.13;5080690;28;20109;-74
2022/01/10 06:22:26;;;;;;;12.40;7.07;;;;;;;6.87;54.12;101339.38;5071199;28;20056;-74
2022/01/10 06:24:53;;;;;;;13.05;7.18;;;;;;;6.88;54.05;101345.66;5086956;28;20083;-74
2022/01/10 06:27:19;;;;;;;10.48;6.78;;;;;;;6.88;54.26;101343.84;5090194;28;20115;-74
2022/01/10 06:29:46;;;;;;;11.82;6.93;;;;;;;6.87;54.20;101347.50;5088912;28;20498;-74
2022/01/10 06:32:13;;;;;;;11.30;6.68;;;;;;;6.86;54.13;101350.25;5081729;28;20467;-73
2022/01/10 06:34:40;;;;;;;11.48;7.03;;;;;;;6.88;54.21;101348.38;5068513;28;20140;-74
2022/01/10 06:37:06;;;;;;;11.38;6.55;;;;;;;6.86;54.15;101350.25;5071707;28;20130;-74
2022/01/10 06:39:33;;;;;;;12.30;6.97;;;;;;;6.86;53.97;101361.03;5085157;28;20550;-74
2022/01/10 06:42:00;;;;;;;12.40;7.05;;;;;;;6.85;54.03;101365.56;5079353;28;20484;-74
2022/01/10 06:44:26;;;;;;;12.25;6.78;;;;;;;6.85;54.15;101373.66;5087607;28;20075;-74
2022/01/10 06:46:53;;;;;;;11.32;6.97;;;;;;;6.84;54.28;101379.13;5069861;28;20056;-74
2022/01/10 06:49:20;;;;;;;12.25;7.45;;;;;;;6.85;54.02;101381.75;5085400;28;20447;-74
2022/01/10 06:51:46;;;;;;;16.67;7.35;;;;;;;6.84;54.01;101389.91;5086346;28;20056;-74
2022/01/10 06:54:13;;;;;;;17.50;7.95;;;;;;;6.83;54.15;101394.47;5082705;28;20440;-74
2022/01/10 06:56:40;;;;;;;15.60;8.45;;;;;;;6.83;53.90;101398.97;5074004;28;20044;-74
2022/01/10 06:59:07;;;;;;;12.18;7.32;;;;;;;6.81;53.70;101398.16;5082325;28;20053;-74
2022/01/10 07:01:34;;;;;;;14.00;7.35;;;;;;;6.80;53.86;101401.81;5091397;28;20075;-74
2022/01/10 07:04:05;;;;;;;12.18;6.70;;;;;;;6.77;53.74;101404.63;5074399;28;20394;-74
2022/01/10 07:06:31;;;;;;;12.38;7.30;;;;;;;6.75;53.50;101410.06;5086406;28;20531;-74
2022/01/10 07:08:58;;;;;;;12.57;7.40;;;;;;;6.75;53.97;101418.16;5085713;28;20131;-74
2022/01/10 07:11:25;;;;;;;11.88;7.30;;;;;;;6.73;53.92;101425.47;5084611;28;20487;-75
2022/01/10 07:13:53;;;;;;;13.50;7.28;;;;;;;6.71;53.61;101432.75;5073717;28;20507;-75
2022/01/10 07:16:20;;;;;;;13.00;7.55;;;;;;;6.71;53.65;101442.66;5087893;28;20487;-74
2022/01/10 07:18:47;;;;;;;12.60;7.93;;;;;;;6.69;53.81;101448.13;5074001;28;20040;-74
2022/01/10 07:21:13;;;;;;;13.68;7.63;;;;;;;6.67;53.84;101452.69;5091410;28;20518;-73
2022/01/10 07:23:40;;;;;;;12.70;7.40;;;;;;;6.66;53.80;101455.47;5088584;28;20083;-73
2022/01/10 07:26:07;;;;;;;13.70;7.22;;;;;;;6.64;53.84;101465.44;5086037;28;20453;-73
2022/01/10 07:28:33;;;;;;;12.02;7.82;;;;;;;6.61;53.80;101469.13;5089440;28;20076;-73
2022/01/10 07:31:00;;;;;;;12.85;7.07;;;;;;;6.62;53.89;101475.41;5089120;28;20414;-74
2022/01/10 07:33:27;;;;;;;12.60;7.20;;;;;;;6.60;54.04;101486.25;5073476;28;20067;-74
2022/01/10 07:35:58;;;;;;;14.20;7.65;;;;;;;6.59;53.81;101498.00;5077507;28;20048;-74
2022/01/10 07:38:25;;;;;;;12.85;7.47;;;;;;;6.59;53.90;101494.44;5092276;28;20568;-74
2022/01/10 07:40:52;;;;;;;12.88;7.32;;;;;;;6.59;53.87;101502.53;5089151;28;20064;-74
2022/01/10 07:43:18;;;;;;;12.50;7.32;;;;;;;6.56;53.80;101503.53;5092025;28;20495;-73
2022/01/10 07:45:45;;;;;;;12.75;6.75;;;;;;;6.54;54.01;101516.19;5086480;28;20462;-73
2022/01/10 07:48:12;;;;;;;13.25;6.88;;;;;;;6.53;53.83;101519.81;5092033;28;20425;-73
2022/01/10 07:50:38;;;;;;;13.88;7.10;;;;;;;6.52;53.99;101530.66;5091543;28;20121;-72
2022/01/10 07:53:05;;;;;;;10.77;6.68;;;;;;;6.49;54.15;101529.00;5102115;28;20048;-72
2022/01/10 07:55:32;;;;;;;14.95;7.40;;;;;;;6.48;54.13;101532.63;5088582;28;20129;-72
2022/01/10 07:57:58;;;;;;;15.65;7.45;;;;;;;6.49;54.23;101534.38;5093924;28;20463;-73
2022/01/10 08:00:25;;;;;;;11.60;7.97;;;;;;;6.48;54.34;101544.28;5089224;28;20056;-73
2022/01/10 08:02:52;;;;;;;13.63;7.88;;;;;;;6.46;54.32;101548.84;5090255;28;20146;-73
2022/01/10 08:05:19;;;;;;;12.50;7.68;;;;;;;6.47;54.28;101550.63;5087803;28;20076;-73
2022/01/10 08:07:45;;;;;;;12.77;7.03;;;;;;;6.48;54.21;101560.47;5082916;28;20434;-73
2022/01/10 08:10:12;;;;;;;11.50;7.65;;;;;;;6.49;54.06;101564.94;5085124;28;20079;-74
2022/01/10 08:12:39;;;;;;;14.88;7.60;;;;;;;6.51;54.30;101580.19;5095953;28;20463;-74
2022/01/10 08:15:06;;;;;;;13.77;7.13;;;;;;;6.50;54.10;101584.69;5085447;28;20086;-73
2022/01/10 08:17:33;;;;;;;12.13;7.25;;;;;;;6.50;54.17;101584.69;5090323;28;20044;-73
2022/01/10 08:19:59;;;;;;;13.55;7.07;;;;;;;6.49;54.21;101585.63;5089447;28;20052;-73
2022/01/10 08:22:26;;;;;;;12.60;6.70;;;;;;;6.48;53.93;101595.53;5088533;28;20051;-74
2022/01/10 08:24:53;;;;;;;11.40;6.70;;;;;;;6.47;54.23;101599.19;5090996;28;20076;-73
2022/01/10 08:27:19;;;;;;;11.18;6.82;;;;;;;6.48;54.22;101597.34;5089343;28;20040;-73
2022/01/10 08:29:47;;;;;;;14.48;6.45;;;;;;;6.48;54.42;101603.63;5089768;28;20560;-73
2022/01/10 08:32:18;;;;;;;12.57;7.10;;;;;;;6.51;54.63;101613.41;5092127;28;20482;-73
2022/01/10 08:34:45;;;;;;;13.18;7.50;;;;;;;6.51;54.29;101616.09;5090203;28;20146;-73
2022/01/10 08:37:12;;;;;;;12.32;7.72;;;;;;;6.51;54.45;101620.66;5090240;28;20044;-73
2022/01/10 08:39:38;;;;;;;13.20;7.88;;;;;;;6.51;54.38;101623.34;5098558;28;20071;-74
2022/01/10 08:42:05;;;;;;;11.82;7.07;;;;;;;6.50;54.21;101617.06;5087318;28;20052;-73
2022/01/10 08:44:32;;;;;;;13.32;7.47;;;;;;;6.50;54.22;101625.16;5076071;28;20573;-74
2022/01/10 08:46:58;;;;;;;14.45;7.28;;;;;;;6.50;54.38;101633.25;5063174;28;20119;-73
2022/01/10 08:49:25;;;;;;;13.18;7.30;;;;;;;6.50;54.54;101627.88;5077971;28;20051;-73
2022/01/10 08:51:54;;;;;;;13.30;7.15;;;;;;;6.50;54.37;101633.25;5086204;28;20662;-73
2022/01/10 08:54:22;;;;;;;12.13;7.80;;;;;;;6.52;54.33;101639.44;5088210;28;20047;-74
2022/01/10 08:56:50;;;;;;;14.70;7.13;;;;;;;6.52;54.48;101643.97;5084118;28;20559;-74
2022/01/10 08:59:17;;;;;;;14.98;7.22;;;;;;;6.52;54.56;101642.16;5085455;28;20448;-74
2022/01/10 09:01:46;;;;;;;13.27;7.07;;;;;;;6.54;54.55;101650.19;5093053;28;20043;-74
2022/01/10 09:04:17;;;;;;;13.93;6.97;;;;;;;6.54;54.68;101659.16;5086408;28;20051;-73
2022/01/10 09:06:46;;;;;;;13.25;7.57;;;;;;;6.56;54.73;101659.13;5087356;28;20102;-73
2022/01/10 09:09:13;;;;;;;12.73;7.45;;;;;;;6.56;54.77;101668.09;5091919;28;20376;-74
2022/01/10 09:11:41;;;;;;;13.80;7.75;;;;;;;6.57;54.90;101668.97;5044044;28;20079;-73
2022/01/10 09:14:09;;;;;;;13.27;7.03;;;;;;;6.60;55.00;101672.41;5087784;28;20048;-73
2022/01/10 09:16:37;;;;;;;14.65;7.60;;;;;;;6.61;54.79;101673.31;5087945;28;20054;-73
2022/01/10 09:19:04;;;;;;;14.18;7.43;;;;;;;6.63;55.15;101677.72;5091279;28;20794;-74
2022/01/10 09:21:31;;;;;;;13.00;7.60;;;;;;;6.66;55.32;101691.09;5090117;28;20080;-73
2022/01/10 09:23:58;;;;;;;12.77;7.10;;;;;;;6.69;55.05;101692.78;5090060;28;20105;-73
2022/01/10 09:26:24;;;;;;;13.70;8.13;;;;;;;6.71;55.32;101694.50;5090327;28;20052;-73
2022/01/10 09:28:52;;;;;;;12.13;7.35;;;;;;;6.75;55.44;101703.38;5091575;28;20075;-74
2022/01/10 09:31:19;;;;;;;12.55;8.15;;;;;;;6.78;55.29;101695.13;5083689;28;20072;-74
2022/01/10 09:33:52;;;;;;;12.82;8.05;;;;;;;6.82;55.60;101699.50;5079775;28;20083;-74
2022/01/10 09:36:19;;;;;;;14.35;7.88;;;;;;;6.84;55.31;101695.78;5087383;28;20047;-74
2022/01/10 09:38:46;;;;;;;13.93;7.57;;;;;;;6.89;55.87;101706.41;5083601;28;20130;-73
2022/01/10 09:41:13;;;;;;;12.82;8.15;;;;;;;6.93;55.53;101710.75;5084395;28;20558;-73
2022/01/10 09:43:48;;;;;;;12.68;7.63;;;;;;;6.99;55.81;101710.53;5077855;28;20105;-73
2022/01/10 09:46:15;;;;;;;14.77;8.15;;;;;;;7.01;55.89;101708.63;5077606;28;20043;-73
2022/01/10 09:48:42;;;;;;;15.32;8.45;;;;;;;7.05;55.80;101704.88;5087396;28;20538;-74
2022/01/10 09:51:23;;;;;;;11.73;7.38;;;;;;;7.09;55.73;101708.34;5085045;28;20066;-73
2022/01/10 09:53:50;;;;;;;13.25;7.22;;;;;;;7.13;55.79;101718.97;5085241;28;20109;-73
2022/01/10 09:56:17;;;;;;;12.80;7.88;;;;;;;7.17;55.86;101720.59;5086096;28;20511;-74
2022/01/10 09:58:45;;;;;;;15.82;7.90;;;;;;;7.21;55.86;101726.78;5070165;28;20136;-74
2022/01/10 10:01:16;;;;;;;14.48;8.13;;;;;;;7.28;55.94;101730.09;5086381;28;20048;-73
2022/01/10 10:03:47;;;;;;;10.55;7.50;;;;;;;7.30;55.99;101744.44;5086099;28;20042;-74
2022/01/10 10:06:16;;;;;;;12.68;7.00;;;;;;;7.36;55.94;101755.00;5084393;28;20780;-74
2022/01/10 10:08:43;;;;;;;14.02;8.00;;;;;;;7.41;55.95;101766.53;5068964;28;20659;-74
2022/01/10 10:11:13;;;;;;;14.35;8.25;;;;;;;7.45;55.82;101765.44;5080449;28;20287;-73
2022/01/10 10:13:45;;;;;;;15.50;7.95;;;;;;;7.50;56.13;101767.00;5069455;28;20089;-74
2022/01/10 10:16:15;;;;;;;17.25;8.50;;;;;;;7.55;56.10;101770.44;5083339;28;20041;-74
2022/01/10 10:18:43;;;;;;;19.30;9.27;;;;;;;7.60;56.25;101770.25;5088618;28;20048;-74
2022/01/10 10:21:12;;;;;;;18.23;9.13;;;;;;;7.66;56.13;101775.38;5080491;28;20379;-75
2022/01/10 10:23:40;;;;;;;16.88;9.00;;;;;;;7.70;56.13;101770.75;5088768;28;20105;-76
2022/01/10 10:26:07;;;;;;;19.08;10.13;;;;;;;7.78;56.07;101776.72;5080999;28;20040;-76
2022/01/10 10:28:37;;;;;;;16.08;8.73;;;;;;;7.84;56.05;101780.06;5086794;28;20395;-76
2022/01/10 10:31:04;;;;;;;12.63;7.95;;;;;;;7.89;56.46;101782.59;5066707;28;20047;-75
2022/01/10 10:33:31;;;;;;;13.98;7.60;;;;;;;7.94;55.89;101785.97;5076004;28;20084;-75
2022/01/10 10:36:03;;;;;;;16.17;8.30;;;;;;;8.03;56.38;101786.47;5079653;28;20503;-76
2022/01/10 10:38:30;;;;;;;13.48;7.70;;;;;;;8.07;56.34;101780.97;5091133;28;20056;-76
2022/01/10 10:41:02;;;;;;;11.85;6.90;;;;;;;8.18;56.31;101779.53;5088709;28;20052;-75
2022/01/10 10:43:34;;;;;;;13.25;7.25;;;;;;;8.27;56.02;101780.97;5085597;28;20059;-74
2022/01/10 10:46:03;;;;;;;14.52;8.35;;;;;;;8.32;56.54;101774.44;5086164;28;20044;-73
2022/01/10 10:48:34;;;;;;;13.38;7.15;;;;;;;8.40;56.48;101780.41;5089564;28;20040;-75
2022/01/10 10:51:01;;;;;;;13.52;7.60;;;;;;;8.48;56.30;101781.94;5085618;28;20112;-74
2022/01/10 10:53:28;;;;;;;13.45;7.70;;;;;;;8.57;56.30;101786.91;5089888;28;20044;-75
2022/01/10 10:56:00;;;;;;;13.18;7.72;;;;;;;8.67;56.06;101789.16;5089093;28;20056;-76
2022/01/10 10:58:30;;;;;;;14.70;8.43;;;;;;;8.72;56.16;101788.97;5081228;28;20450;-76
2022/01/10 11:00:58;;;;;;;14.27;8.13;;;;;;;8.83;56.00;101799.31;5090576;28;20048;-77
2022/01/10 11:03:25;;;;;;;13.75;8.13;;;;;;;8.90;56.03;101795.38;5088716;28;20123;-78
2022/01/10 11:06:05;;;;;;;15.77;8.25;;;;;;;8.97;55.96;101805.00;5094271;28;20080;-78
2022/01/10 11:08:35;;;;;;;14.63;7.78;;;;;;;9.02;56.13;101811.09;5076287;28;20048;-78
2022/01/10 11:11:02;;;;;;;14.35;8.30;;;;;;;9.08;55.93;101811.69;5065876;28;20478;-78
2022/01/10 11:13:30;;;;;;;12.77;7.00;;;;;;;9.15;55.91;101815.88;5089172;28;20105;-78
2022/01/10 11:15:58;;;;;;;11.38;6.75;;;;;;;9.22;55.89;101821.91;5069384;28;20131;-77
2022/01/10 11:18:26;;;;;;;13.13;7.55;;;;;;;9.29;55.96;101820.69;5070479;28;20052;-77
2022/01/10 11:20:55;;;;;;;13.35;6.50;;;;;;;9.38;55.87;101824.78;5086207;28;20132;-77
2022/01/10 11:23:31;;;;;;;11.07;6.88;;;;;;;9.44;55.92;101824.50;5086782;28;20167;-77
2022/01/10 11:25:58;;;;;;;13.77;7.70;;;;;;;9.52;55.61;101823.19;5084522;28;20052;-77
2022/01/10 11:28:28;;;;;;;14.68;7.43;;;;;;;9.62;55.60;101828.19;5082371;28;20051;-77
2022/01/10 11:31:03;;;;;;;17.15;8.20;;;;;;;9.70;55.31;101834.13;5085239;28;20052;-78
2022/01/10 11:33:36;;;;;;;13.77;7.05;;;;;;;9.76;55.51;101841.94;5087496;28;20048;-78
2022/01/10 11:36:04;;;;;;;;;;;;;;;9.61;55.69;101840.84;5068554;28;20043;-78
2022/01/10 11:38:37;;;;;;;13.15;6.53;;;;;;;9.89;55.25;101835.84;5073053;28;19946;-77
2022/01/10 11:41:07;;;;;;;13.35;6.68;;;;;;;9.97;55.22;101832.75;5069814;28;20075;-77
2022/01/10 11:43:56;;;;;;;16.88;8.57;;;;;;;10.07;54.72;101844.94;5067343;28;20056;-77
2022/01/10 11:46:33;;;;;;;16.40;8.15;;;;;;;10.14;54.75;101840.06;5072227;28;20402;-78